Accueil
METAR-TAF:

METAR-TAF

Aéroports :

Aéroport international de Kualanamu

Medan, Sumatra du Nord, Indonésie

latitude: 03-34N, longitude: 098-41E, altitude: 25 m

Observation

Le bulletin a été fait il y a 41 minutes, à 01:00 UTC
Vent 7 kt de sud
Température 25°C
Humidité 89%
Pression 1013 hPa
Visibilité: 6000 m
Quelques nuages à une hauteur de 1800 ft

METAR: WIMM 220100Z 18007KT 6000 FEW018 25/23 Q1013 NOSIG

Heure: 08:41 (01:41 UTC)

Prévision

Le bulletin a été fait il y a 2 heures et 41 minutes, à 23:00 UTC
Prévision valable du 22 à 00 UTC au 23 à 00 UTC
Vent 10 kt de nord
Visibilité: 9000 m
Nuages épars à une hauteur de 1800 ft
Evoluant progressivement
du 22 à 12 UTC au 22 à 14 UTC
Vent 3 kt de direction variable
Visibilité: 3000 m
brume

TAF: WIMM 212300Z 2200/2300 36010KT 9000 SCT018 BECMG 2212/2214 VRB03KT 3000 BR

Observations et prévisions météorologiques de plus de 4000 aéroports (messages METAR et TAF).

Les stations disponibles sont représentées par des disques jaunes et rouges sur la carte.

Passer la souris dessus pour voir le nom de la station.

Cliquer dessus pour voir les observations et prévisions météorologiques.

Pour changer de carte: cliquez sur les boutons verts avec une croix noire pour zoomer, sur le bouton vert avec un tiret pour effectuer un zoom arrière, ou sur les flèches vertes pour les cartes adjacentes.


METAR-TAF: